Time;durP1;ratioP1;P1;durP2;ratioP2;P2;SDS_P1;SDS_P2;PMS_P1;PMS_P2;Temp;Humidity;BMP_temperature;BMP_pressure;BME280_temperature;BME280_humidity;BME280_pressure;Samples;Min_cycle;Max_cycle;Signal;HPM_P1;HPM_P2
2022/11/11 00:00:24;;;;;;;8.80;6.53;;;;;;;8.89;100.00;102865.03;5075167;28;20107;-34
2022/11/11 00:02:50;;;;;;;7.97;6.03;;;;;;;8.86;100.00;102854.56;5075727;28;20028;-34
2022/11/11 00:05:16;;;;;;;8.57;6.40;;;;;;;8.96;100.00;102866.03;5075085;28;20487;-34
2022/11/11 00:07:42;;;;;;;8.20;6.55;;;;;;;8.94;100.00;102868.06;5075231;28;20024;-35
2022/11/11 00:10:08;;;;;;;9.57;6.72;;;;;;;8.86;100.00;102864.53;5074847;28;20028;-34
2022/11/11 00:12:34;;;;;;;11.80;7.10;;;;;;;9.00;100.00;102872.75;5075647;28;20127;-34
2022/11/11 00:14:59;;;;;;;9.43;7.13;;;;;;;9.02;100.00;102865.31;5074575;28;20028;-34
2022/11/11 00:25:40;;;;;;;11.68;7.03;;;;;;;9.02;100.00;102851.84;5075244;28;20089;-35
2022/11/11 00:28:06;;;;;;;9.90;8.07;;;;;;;9.10;100.00;102866.34;5075309;28;20123;-34
2022/11/11 00:30:31;;;;;;;9.98;8.07;;;;;;;9.03;100.00;102856.25;5074552;28;20357;-34
2022/11/11 00:32:56;;;;;;;10.97;7.73;;;;;;;9.10;100.00;102866.34;5075150;28;20349;-34
2022/11/11 00:38:44;;;;;;;10.80;8.07;;;;;;;9.14;100.00;102873.94;5074759;28;20400;-34
2022/11/11 00:40:57;;;;;;;11.63;8.90;;;;;;;9.17;100.00;102881.66;5074052;28;20032;-34
2022/11/11 00:43:22;;;;;;;11.55;8.43;;;;;;;9.16;100.00;102882.69;5074269;28;20036;-35
2022/11/11 00:45:47;;;;;;;10.03;7.93;;;;;;;9.18;100.00;102879.81;5074643;28;20028;-34
2022/11/11 00:50:59;;;;;;;10.60;8.07;;;;;;;9.21;100.00;102879.47;5073730;28;20152;-34
2022/11/11 00:53:27;;;;;;;12.00;8.57;;;;;;;9.19;100.00;102881.50;5074429;28;20047;-34
2022/11/11 00:55:55;;;;;;;11.10;8.95;;;;;;;9.20;100.00;102884.03;5074070;28;20031;-34
2022/11/11 00:58:22;;;;;;;12.63;9.05;;;;;;;9.21;100.00;102887.56;5074221;28;20029;-34
2022/11/11 01:00:49;;;;;;;12.02;8.38;;;;;;;9.24;100.00;102890.75;5074334;28;20028;-34
2022/11/11 01:03:15;;;;;;;12.98;9.82;;;;;;;9.20;100.00;102894.81;5073855;28;20029;-34
2022/11/11 01:05:40;;;;;;;;;;;;;;;9.28;100.00;102902.06;5074765;28;20016;-34
2022/11/11 01:08:05;;;;;;;11.50;8.63;;;;;;;9.25;100.00;102899.72;5074202;28;19912;-34
2022/11/11 01:10:43;;;;;;;10.63;7.97;;;;;;;9.28;100.00;102894.81;5072422;28;20278;-34
2022/11/11 01:13:19;;;;;;;12.60;9.25;;;;;;;9.27;100.00;102905.75;5074020;28;20115;-34
2022/11/11 01:15:47;;;;;;;14.45;9.05;;;;;;;9.26;100.00;102904.94;5073851;28;20037;-35
2022/11/11 01:18:15;;;;;;;17.00;9.57;;;;;;;9.29;100.00;102899.19;5073732;28;20107;-34
2022/11/11 01:20:41;;;;;;;11.55;9.85;;;;;;;9.31;100.00;102900.88;5073550;28;20032;-34
2022/11/11 01:23:07;;;;;;;15.00;8.82;;;;;;;9.25;100.00;102886.22;5073874;28;20054;-34
2022/11/11 01:25:34;;;;;;;11.70;9.57;;;;;;;9.29;100.00;102903.75;5073259;28;20028;-34
2022/11/11 01:28:00;;;;;;;12.23;9.32;;;;;;;9.31;100.00;102900.88;5073810;28;20024;-34
2022/11/11 01:30:25;;;;;;;12.98;9.15;;;;;;;9.33;100.00;102902.41;5073470;28;20035;-35
2022/11/11 01:32:50;;;;;;;11.43;9.03;;;;;;;9.30;100.00;102894.63;5073491;28;20032;-34
2022/11/11 01:35:16;;;;;;;12.13;9.47;;;;;;;9.34;100.00;102898.69;5073635;28;20028;-35
2022/11/11 01:37:41;;;;;;;12.27;9.20;;;;;;;9.35;100.00;102889.56;5073772;28;20021;-34
2022/11/11 01:40:07;;;;;;;9.83;8.90;;;;;;;9.36;100.00;102883.13;5073153;28;20178;-35
2022/11/11 01:42:53;;;;;;;;;;;;;;;9.40;100.00;102880.94;5073077;28;20044;-34
2022/11/11 01:45:43;;;;;;;10.70;8.88;;;;;;;9.36;100.00;102877.72;5073269;28;19920;-34
2022/11/11 01:51:02;;;;;;;11.38;9.82;;;;;;;9.33;100.00;102870.00;5073003;28;20055;-34
2022/11/11 01:53:28;;;;;;;11.65;9.43;;;;;;;9.35;100.00;102867.13;5073248;28;20025;-34
2022/11/11 01:55:53;;;;;;;14.82;10.40;;;;;;;9.32;100.00;102860.22;5073698;28;20361;-34
2022/11/11 01:58:20;;;;;;;15.63;11.18;;;;;;;9.22;100.00;102855.03;5073216;28;20029;-34
2022/11/11 02:00:45;;;;;;;;;;;;;;;9.34;100.00;102874.38;5073022;28;20438;-35
2022/11/11 02:03:13;;;;;;;12.57;9.80;;;;;;;9.30;100.00;102873.03;5071796;28;19924;-34
2022/11/11 02:05:42;;;;;;;11.23;9.82;;;;;;;9.33;100.00;102871.84;5072569;28;20357;-34
2022/11/11 02:08:09;;;;;;;15.20;10.68;;;;;;;9.31;100.00;102857.66;5072994;28;20036;-35
2022/11/11 02:10:37;;;;;;;12.75;10.27;;;;;;;9.27;100.00;102841.84;5072816;28;20032;-34
2022/11/11 02:15:46;;;;;;;16.00;10.70;;;;;;;9.27;100.00;102849.94;5072747;28;20036;-34
2022/11/11 02:18:11;;;;;;;15.68;10.57;;;;;;;9.25;100.00;102845.72;5073394;28;20036;-34
2022/11/11 02:20:41;;;;;;;14.90;9.97;;;;;;;9.23;100.00;102840.50;5073004;28;20385;-34
2022/11/11 02:23:12;;;;;;;13.95;9.98;;;;;;;9.22;100.00;102843.34;5072819;28;20357;-34
2022/11/11 02:25:39;;;;;;;12.57;10.25;;;;;;;9.25;100.00;102853.81;5072918;28;20120;-34
2022/11/11 02:28:06;;;;;;;12.85;9.95;;;;;;;9.25;100.00;102854.66;5072926;28;20032;-34
2022/11/11 02:30:32;;;;;;;15.35;10.57;;;;;;;9.25;100.00;102870.00;5073029;28;20354;-34
2022/11/11 02:32:57;;;;;;;11.63;9.80;;;;;;;9.26;100.00;102866.28;5072370;28;20028;-34
2022/11/11 02:35:32;;;;;;;15.43;9.73;;;;;;;9.27;100.00;102859.88;5072584;28;20025;-34
2022/11/11 02:37:57;;;;;;;14.13;9.77;;;;;;;9.23;100.00;102862.09;5073027;28;20025;-35
2022/11/11 02:40:31;;;;;;;14.52;10.93;;;;;;;9.25;100.00;102860.06;5072225;28;20035;-34
2022/11/11 02:42:57;;;;;;;15.38;10.98;;;;;;;9.22;100.00;102856.84;5073326;28;20035;-34
2022/11/11 02:45:22;;;;;;;17.30;10.45;;;;;;;9.24;100.00;102852.97;5072178;28;20024;-34
2022/11/11 02:47:48;;;;;;;13.03;9.90;;;;;;;9.12;100.00;102821.94;5073135;28;20035;-34
2022/11/11 02:50:13;;;;;;;13.43;10.10;;;;;;;9.22;100.00;102832.56;5072397;28;20048;-34
2022/11/11 02:52:38;;;;;;;14.13;9.73;;;;;;;9.20;100.00;102842.69;5072784;28;20039;-34
2022/11/11 02:55:04;;;;;;;11.77;9.60;;;;;;;9.20;100.00;102840.00;5072374;28;20102;-34
2022/11/11 02:57:30;;;;;;;13.90;10.25;;;;;;;9.19;100.00;102841.00;5072958;28;20024;-34
2022/11/11 02:59:58;;;;;;;11.93;9.65;;;;;;;9.16;100.00;102838.66;5072378;28;20033;-35
2022/11/11 03:02:26;;;;;;;13.65;9.48;;;;;;;9.20;100.00;102845.41;5073061;28;20108;-34
2022/11/11 03:04:52;;;;;;;15.48;9.75;;;;;;;9.07;100.00;102826.19;5072149;28;20021;-34
2022/11/11 03:07:17;;;;;;;;;;;;;;;9.22;100.00;102844.22;5073299;28;20047;-34
2022/11/11 03:09:42;;;;;;;10.57;9.07;;;;;;;9.17;100.00;102845.72;5071900;28;19912;-34
2022/11/11 03:12:08;;;;;;;16.00;10.00;;;;;;;9.16;100.00;102849.44;5072481;28;20031;-34
2022/11/11 03:14:33;;;;;;;16.60;10.80;;;;;;;9.15;100.00;102848.59;5074860;28;20058;-35
2022/11/11 03:19:42;;;;;;;12.90;9.35;;;;;;;9.17;100.00;102856.53;5076081;28;20102;-34
2022/11/11 03:22:08;;;;;;;11.87;8.73;;;;;;;9.19;100.00;102854.50;5075756;28;20037;-35
2022/11/11 03:27:17;;;;;;;14.35;9.85;;;;;;;9.15;100.00;102845.06;5075063;28;20039;-34
2022/11/11 03:29:42;;;;;;;15.70;9.30;;;;;;;9.06;100.00;102832.59;5075825;28;20028;-34
2022/11/11 03:32:08;;;;;;;14.73;10.30;;;;;;;9.12;100.00;102851.63;5075262;28;20044;-35
2022/11/11 03:34:34;;;;;;;11.50;9.15;;;;;;;9.12;100.00;102850.81;5075829;28;20481;-34
2022/11/11 03:39:43;;;;;;;10.90;8.80;;;;;;;9.02;100.00;102827.53;5075784;28;20442;-34
2022/11/11 03:42:08;;;;;;;12.83;8.80;;;;;;;9.09;100.00;102841.22;5075551;28;20028;-34
2022/11/11 03:44:33;;;;;;;14.53;9.90;;;;;;;9.03;100.00;102828.41;5075706;28;20033;-34
2022/11/11 03:46:59;;;;;;;14.47;9.23;;;;;;;9.12;100.00;102832.75;5075601;28;20100;-34
2022/11/11 03:49:24;;;;;;;11.27;8.97;;;;;;;9.13;100.00;102845.25;5075538;28;20516;-34
2022/11/11 03:51:49;;;;;;;11.57;8.83;;;;;;;9.05;100.00;102828.22;5075441;28;20072;-35
2022/11/11 03:54:14;;;;;;;11.83;8.83;;;;;;;9.06;100.00;102832.59;5075742;28;20127;-34
2022/11/11 03:56:40;;;;;;;15.67;9.10;;;;;;;9.10;100.00;102845.59;5075180;28;20072;-34
2022/11/11 03:59:05;;;;;;;15.47;9.47;;;;;;;9.08;100.00;102847.63;5075693;28;20107;-35
2022/11/11 04:12:27;;;;;;;9.98;7.97;;;;;;;9.04;100.00;102862.47;5075152;28;20482;-34
2022/11/11 04:17:36;;;;;;;11.25;9.02;;;;;;;8.98;100.00;102860.47;5074608;28;20168;-34
2022/11/11 04:22:47;;;;;;;11.05;7.90;;;;;;;8.97;100.00;102870.41;5074522;28;20079;-34
2022/11/11 04:30:40;;;;;;;14.52;8.85;;;;;;;8.99;100.00;102879.19;5074277;28;20046;-34
2022/11/11 04:33:05;;;;;;;13.53;8.73;;;;;;;8.96;100.00;102870.56;5074710;28;20032;-34
2022/11/11 04:35:30;;;;;;;12.03;8.43;;;;;;;8.96;100.00;102878.66;5074780;28;20035;-34
2022/11/11 04:41:02;;;;;;;12.60;9.30;;;;;;;8.95;100.00;102875.13;5075209;28;20037;-34
2022/11/11 04:43:25;;;;;;;12.32;9.23;;;;;;;8.92;100.00;102872.75;5074070;28;20146;-34
2022/11/11 04:45:50;;;;;;;12.40;8.40;;;;;;;8.94;100.00;102869.91;5074707;28;20029;-34
2022/11/11 04:48:17;;;;;;;12.43;8.50;;;;;;;8.85;100.00;102857.44;5074703;28;20044;-34
2022/11/11 04:50:43;;;;;;;12.77;9.10;;;;;;;8.86;100.00;102867.22;5074384;28;20095;-34
2022/11/11 04:53:13;;;;;;;10.55;8.35;;;;;;;8.85;100.00;102860.97;5073920;28;20048;-34
2022/11/11 04:58:30;;;;;;;12.90;8.60;;;;;;;8.80;100.00;102859.81;5074322;28;20089;-34
2022/11/11 05:00:55;;;;;;;15.13;9.48;;;;;;;8.80;100.00;102855.25;5074518;28;20036;-34
2022/11/11 05:03:23;;;;;;;13.77;10.03;;;;;;;8.84;100.00;102862.00;5074478;28;20032;-34
2022/11/11 05:08:54;;;;;;;14.32;9.43;;;;;;;8.75;100.00;102861.16;5073892;28;20067;-34
2022/11/11 05:11:21;;;;;;;14.48;9.52;;;;;;;8.79;100.00;102863.53;5074038;28;20028;-34
2022/11/11 05:22:18;;;;;;;14.02;9.80;;;;;;;8.79;100.00;102868.94;5074032;28;20047;-34
2022/11/11 05:27:28;;;;;;;15.75;10.38;;;;;;;8.73;100.00;102870.41;5073776;28;20703;-34
2022/11/11 05:29:53;;;;;;;11.18;9.07;;;;;;;8.77;100.00;102866.38;5073111;28;20020;-34
2022/11/11 05:32:21;;;;;;;12.85;9.20;;;;;;;8.75;100.00;102876.50;5073425;28;20178;-34
2022/11/11 05:34:46;;;;;;;13.07;9.57;;;;;;;8.75;100.00;102879.19;5073111;28;20043;-34
2022/11/11 05:37:12;;;;;;;12.88;9.93;;;;;;;8.71;100.00;102876.00;5073143;28;20025;-34
2022/11/11 05:39:37;;;;;;;12.27;9.55;;;;;;;8.59;100.00;102861.19;5073544;28;20110;-34
2022/11/11 05:42:03;;;;;;;12.93;9.33;;;;;;;8.71;100.00;102876.00;5072986;28;20485;-34
2022/11/11 05:44:28;;;;;;;12.32;9.43;;;;;;;8.70;100.00;102879.72;5073715;28;20063;-34
2022/11/11 05:46:54;;;;;;;11.40;8.93;;;;;;;8.63;100.00;102862.50;5073053;28;20358;-34
2022/11/11 05:49:19;;;;;;;11.77;8.60;;;;;;;8.68;100.00;102873.63;5073038;28;20025;-34
2022/11/11 05:51:45;;;;;;;12.10;8.70;;;;;;;8.70;100.00;102876.16;5073051;28;20075;-34
2022/11/11 05:54:12;;;;;;;10.35;9.25;;;;;;;8.56;100.00;102857.97;5073700;28;20056;-34
2022/11/11 05:56:37;;;;;;;13.55;10.02;;;;;;;8.67;100.00;102876.50;5073019;28;20068;-34
2022/11/11 05:59:03;;;;;;;11.63;9.43;;;;;;;8.61;100.00;102867.22;5073609;28;20028;-34
2022/11/11 06:01:29;;;;;;;13.13;8.25;;;;;;;8.62;100.00;102868.91;5073358;28;20263;-34
2022/11/11 06:03:54;;;;;;;13.00;9.43;;;;;;;8.46;100.00;102844.66;5073221;28;20041;-34
2022/11/11 06:06:19;;;;;;;11.90;8.80;;;;;;;8.54;100.00;102868.06;5072879;28;20345;-34
2022/11/11 06:08:45;;;;;;;12.73;8.60;;;;;;;8.55;100.00;102880.56;5072000;28;20430;-34
2022/11/11 06:11:10;;;;;;;14.25;9.63;;;;;;;8.47;100.00;102884.06;5072764;28;20388;-34
2022/11/11 06:13:36;;;;;;;10.50;8.83;;;;;;;8.48;100.00;102885.75;5072829;28;20492;-34
2022/11/11 06:16:02;;;;;;;11.97;8.93;;;;;;;8.46;100.00;102883.25;5073543;28;20044;-34
2022/11/11 06:18:27;;;;;;;13.10;9.43;;;;;;;8.38;100.00;102872.44;5073077;28;20051;-34
2022/11/11 06:20:53;;;;;;;9.50;8.43;;;;;;;8.42;100.00;102884.56;5072736;28;20028;-34
2022/11/11 06:23:19;;;;;;;10.70;9.10;;;;;;;8.41;100.00;102882.06;5072902;28;20439;-34
2022/11/11 06:28:28;;;;;;;11.32;9.23;;;;;;;8.33;100.00;102876.63;5072548;28;20132;-35
2022/11/11 06:30:54;;;;;;;12.33;9.93;;;;;;;8.35;100.00;102888.94;5072887;28;20060;-34
2022/11/11 06:33:20;;;;;;;11.03;9.80;;;;;;;8.32;100.00;102894.66;5072676;28;20056;-35
2022/11/11 06:35:46;;;;;;;11.35;9.20;;;;;;;8.27;100.00;102897.84;5073242;28;20029;-34
2022/11/11 06:38:11;;;;;;;11.60;10.02;;;;;;;8.26;100.00;102900.72;5072537;28;20032;-34
2022/11/11 06:40:37;;;;;;;12.60;10.30;;;;;;;8.20;100.00;102907.59;5072785;28;20058;-34
2022/11/11 06:43:02;;;;;;;12.50;10.07;;;;;;;8.13;100.00;102901.16;5073215;28;20354;-34
2022/11/11 06:45:29;;;;;;;11.47;9.53;;;;;;;8.23;100.00;102906.41;5072773;28;20039;-34
2022/11/11 06:47:55;;;;;;;12.55;9.85;;;;;;;8.17;100.00;102897.16;5072286;28;20032;-34
2022/11/11 06:50:20;;;;;;;11.48;9.88;;;;;;;8.13;100.00;102895.78;5076162;28;20162;-34
2022/11/11 06:52:45;;;;;;;11.93;9.93;;;;;;;8.15;100.00;102909.94;5076924;28;20518;-34
2022/11/11 06:55:11;;;;;;;11.60;9.50;;;;;;;8.15;100.00;102920.72;5076686;28;20028;-34
2022/11/11 06:57:37;;;;;;;11.25;9.20;;;;;;;7.94;100.00;102901.44;5076276;28;20029;-34
2022/11/11 07:00:04;;;;;;;11.85;9.82;;;;;;;8.03;100.00;102911.25;5076345;28;20108;-34
2022/11/11 07:02:29;;;;;;;11.55;9.73;;;;;;;8.04;100.00;102920.19;5075043;28;20024;-34
2022/11/11 07:04:54;;;;;;;12.27;9.67;;;;;;;7.99;100.00;102904.50;5075883;28;20029;-34
2022/11/11 07:07:20;;;;;;;15.00;9.80;;;;;;;8.00;100.00;102920.53;5076608;28;20297;-34
2022/11/11 07:09:45;;;;;;;10.97;9.83;;;;;;;7.98;100.00;102911.75;5076496;28;20043;-34
2022/11/11 07:12:10;;;;;;;10.37;9.23;;;;;;;7.91;100.00;102902.63;5076034;28;20029;-34
2022/11/11 07:14:36;;;;;;;11.03;9.90;;;;;;;7.93;100.00;102914.09;5075732;28;20029;-34
2022/11/11 07:17:01;;;;;;;10.20;9.20;;;;;;;7.99;100.00;102926.91;5076297;28;20027;-34
2022/11/11 07:19:26;;;;;;;9.23;8.13;;;;;;;7.91;100.00;102917.97;5076285;28;20032;-34
2022/11/11 07:21:52;;;;;;;12.83;9.37;;;;;;;7.94;100.00;102929.22;5075587;28;20029;-34
2022/11/11 07:24:17;;;;;;;12.97;10.20;;;;;;;7.84;100.00;102927.69;5076438;28;20028;-34
2022/11/11 07:26:42;;;;;;;10.53;9.43;;;;;;;7.86;100.00;102940.00;5075867;28;20483;-34
2022/11/11 07:29:08;;;;;;;11.00;9.80;;;;;;;7.84;100.00;102944.69;5075450;28;20567;-34
2022/11/11 07:31:34;;;;;;;10.98;9.48;;;;;;;7.85;100.00;102946.38;5075658;28;20028;-34
2022/11/11 07:33:59;;;;;;;11.10;9.45;;;;;;;7.85;100.00;102950.91;5075951;28;20449;-34
2022/11/11 07:36:24;;;;;;;12.90;9.23;;;;;;;7.78;100.00;102953.41;5075408;28;20469;-34
2022/11/11 07:38:50;;;;;;;12.87;9.97;;;;;;;7.83;100.00;102948.38;5076099;28;20024;-34
2022/11/11 07:41:15;;;;;;;11.97;9.00;;;;;;;7.83;100.00;102953.78;5075529;28;20492;-34
2022/11/11 07:43:40;;;;;;;15.03;9.60;;;;;;;7.74;100.00;102938.59;5075268;28;20392;-34
2022/11/11 07:46:06;;;;;;;11.47;8.70;;;;;;;7.81;100.00;102944.16;5075590;28;20422;-34
2022/11/11 07:48:31;;;;;;;11.37;8.87;;;;;;;7.83;100.00;102951.09;5074094;28;20040;-34
2022/11/11 07:50:56;;;;;;;12.27;8.43;;;;;;;7.79;100.00;102951.56;5075538;28;20054;-35
2022/11/11 07:53:22;;;;;;;9.77;8.17;;;;;;;7.80;100.00;102966.72;5074550;28;20028;-34
2022/11/11 07:55:47;;;;;;;11.03;8.20;;;;;;;7.84;100.00;102974.31;5073939;28;20054;-34
2022/11/11 07:58:13;;;;;;;10.52;7.85;;;;;;;7.86;100.00;102972.31;5074953;28;20150;-34
2022/11/11 08:00:38;;;;;;;8.55;7.65;;;;;;;7.84;100.00;102977.00;5073782;28;20025;-34
2022/11/11 08:03:03;;;;;;;11.07;8.07;;;;;;;7.85;100.00;102978.69;5075506;28;20028;-34
2022/11/11 08:05:29;;;;;;;8.97;7.83;;;;;;;7.91;100.00;102988.00;5075219;28;20036;-34
2022/11/11 08:07:54;;;;;;;10.87;7.90;;;;;;;7.82;100.00;102978.19;5075089;28;20064;-34
2022/11/11 08:10:20;;;;;;;9.05;7.80;;;;;;;7.97;100.00;102998.13;5075008;28;20122;-34
2022/11/11 08:15:29;;;;;;;10.05;7.80;;;;;;;7.99;100.00;102993.41;5075116;28;20255;-34
2022/11/11 08:17:54;;;;;;;9.70;8.27;;;;;;;8.02;100.00;102995.78;5075505;28;20024;-34
2022/11/11 08:20:19;;;;;;;10.00;8.20;;;;;;;8.08;100.00;102999.69;5075339;28;20032;-34
2022/11/11 08:22:45;;;;;;;12.43;8.63;;;;;;;8.07;100.00;102996.16;5075181;28;20046;-34
2022/11/11 08:25:15;;;;;;;11.73;8.30;;;;;;;8.07;100.00;102987.22;5074788;28;20388;-34
2022/11/11 08:27:40;;;;;;;10.77;8.65;;;;;;;8.11;100.00;103000.22;5074822;28;20025;-34
2022/11/11 08:30:07;;;;;;;11.20;8.45;;;;;;;8.16;100.00;103011.34;5074572;28;20512;-34
2022/11/11 08:32:33;;;;;;;9.80;7.97;;;;;;;8.21;100.00;103011.72;5074608;28;20028;-34
2022/11/11 08:34:58;;;;;;;12.03;8.33;;;;;;;8.25;100.00;103012.22;5074535;28;20036;-34
2022/11/11 08:37:23;;;;;;;10.73;8.00;;;;;;;8.30;100.00;103014.44;5074744;28;20094;-34
2022/11/11 08:39:51;;;;;;;12.37;8.70;;;;;;;8.30;100.00;103020.69;5073081;28;20033;-34
2022/11/11 08:42:17;;;;;;;9.43;8.43;;;;;;;8.37;100.00;103021.72;5074995;28;20334;-34
2022/11/11 08:44:42;;;;;;;11.48;8.27;;;;;;;8.27;100.00;103005.66;5074938;28;20445;-34
2022/11/11 08:47:07;;;;;;;11.83;7.80;;;;;;;8.45;100.00;103027.16;5075003;28;20111;-34
2022/11/11 08:49:33;;;;;;;10.47;7.53;;;;;;;8.54;100.00;103038.81;5074427;28;20369;-34
2022/11/11 08:51:58;;;;;;;10.57;8.13;;;;;;;8.59;100.00;103028.38;5074100;28;20044;-34
2022/11/11 08:54:23;;;;;;;9.70;8.27;;;;;;;8.62;100.00;103030.72;5074434;28;20063;-34
2022/11/11 08:56:49;;;;;;;10.47;8.07;;;;;;;8.50;100.00;103011.34;5074546;28;20074;-34
2022/11/11 08:59:14;;;;;;;11.00;8.80;;;;;;;8.65;100.00;103037.66;5074269;28;20035;-35
2022/11/11 09:01:39;;;;;;;9.60;8.10;;;;;;;8.66;100.00;103037.50;5073921;28;20028;-34
2022/11/11 09:04:04;;;;;;;9.03;8.13;;;;;;;8.64;100.00;103030.59;5074398;28;20329;-34
2022/11/11 09:06:30;;;;;;;10.10;8.47;;;;;;;8.67;100.00;103032.94;5073848;28;20024;-34
2022/11/11 09:08:55;;;;;;;9.03;7.67;;;;;;;8.70;100.00;103033.47;5072179;28;20066;-34
2022/11/11 09:11:21;;;;;;;11.43;8.80;;;;;;;8.71;100.00;103026.22;5073824;28;20112;-34
2022/11/11 09:13:47;;;;;;;8.98;7.95;;;;;;;8.73;100.00;103033.09;5074078;28;20024;-34
2022/11/11 09:16:12;;;;;;;9.00;7.60;;;;;;;8.76;100.00;103027.41;5073186;28;20040;-34
2022/11/11 09:18:38;;;;;;;11.23;7.95;;;;;;;8.78;100.00;103027.22;5074391;28;20266;-34
2022/11/11 09:21:04;;;;;;;9.98;8.15;;;;;;;8.82;100.00;103025.03;5073920;28;20103;-34
2022/11/11 09:23:29;;;;;;;8.90;8.00;;;;;;;8.89;100.00;103026.91;5072334;28;20040;-34
2022/11/11 09:25:56;;;;;;;8.90;7.70;;;;;;;8.93;100.00;103033.69;5073626;28;20059;-35
2022/11/11 09:28:22;;;;;;;9.20;7.95;;;;;;;8.98;100.00;103025.91;5074009;28;20052;-34
2022/11/11 09:30:47;;;;;;;9.70;8.10;;;;;;;8.97;100.00;103024.22;5073126;28;20117;-34
2022/11/11 09:33:15;;;;;;;9.30;7.80;;;;;;;8.88;100.00;103005.47;5074164;28;20028;-34
2022/11/11 09:35:40;;;;;;;9.88;8.00;;;;;;;9.06;100.00;103032.31;5072938;28;20429;-35
2022/11/11 09:38:06;;;;;;;11.68;8.35;;;;;;;9.11;100.00;103033.50;5073525;28;20036;-34
2022/11/11 09:40:40;;;;;;;9.17;7.90;;;;;;;9.01;100.00;103019.34;5072966;28;20031;-35
2022/11/11 09:43:17;;;;;;;8.25;7.32;;;;;;;9.16;100.00;103025.75;5072417;28;20270;-34
2022/11/11 09:46:00;;;;;;;10.93;8.00;;;;;;;9.20;100.00;103035.19;5073754;28;20028;-34
2022/11/11 09:48:34;;;;;;;8.25;7.10;;;;;;;9.24;100.00;103041.13;5072992;28;20028;-34
2022/11/11 09:51:02;;;;;;;9.25;7.80;;;;;;;9.25;100.00;103038.22;5073011;28;20029;-34
2022/11/11 09:53:39;;;;;;;9.93;7.68;;;;;;;9.29;100.00;103038.75;5073375;28;20413;-34
2022/11/11 09:56:11;;;;;;;7.45;6.75;;;;;;;9.40;100.00;103045.66;5073578;28;20460;-34
2022/11/11 09:58:50;;;;;;;7.70;6.80;;;;;;;9.46;100.00;103043.09;5073569;28;20078;-34
2022/11/11 10:01:23;;;;;;;8.43;7.45;;;;;;;9.47;100.00;103038.59;5073897;28;20361;-34
2022/11/11 10:04:20;;;;;;;10.50;7.30;;;;;;;9.49;100.00;103040.09;5072936;28;20024;-34
2022/11/11 10:06:48;;;;;;;8.43;7.15;;;;;;;9.49;100.00;103040.09;5073335;28;20101;-34
2022/11/11 10:09:26;;;;;;;8.93;7.10;;;;;;;9.59;100.00;103039.06;5072495;28;20326;-34
2022/11/11 10:12:04;;;;;;;9.50;6.78;;;;;;;9.63;100.00;103043.94;5073175;28;20074;-34
2022/11/11 10:14:35;;;;;;;8.52;7.07;;;;;;;9.64;100.00;103044.78;5072793;28;20039;-34
2022/11/11 10:17:12;;;;;;;7.65;6.85;;;;;;;9.68;100.00;103056.94;5073217;28;20036;-34
2022/11/11 10:19:40;;;;;;;8.93;6.65;;;;;;;9.76;100.00;103054.22;5073349;28;20059;-34
2022/11/11 10:22:21;;;;;;;8.18;6.78;;;;;;;9.83;100.00;103049.81;5072713;28;20028;-35
2022/11/11 10:25:00;;;;;;;7.40;6.57;;;;;;;9.84;99.07;103059.59;5072548;28;20057;-34
2022/11/11 10:27:27;;;;;;;7.32;6.50;;;;;;;9.86;99.74;103052.19;5072622;28;20031;-34
2022/11/11 10:29:53;;;;;;;7.30;6.40;;;;;;;9.88;99.50;103047.44;5072559;28;20070;-34
2022/11/11 10:32:25;;;;;;;7.68;6.57;;;;;;;9.93;99.57;103060.44;5073087;28;20062;-35
2022/11/11 10:34:51;;;;;;;8.15;6.13;;;;;;;9.95;99.59;103066.50;5072367;28;20048;-34
2022/11/11 10:37:26;;;;;;;7.28;6.28;;;;;;;9.95;99.55;103059.25;5072961;28;20115;-34
2022/11/11 10:40:02;;;;;;;8.02;5.97;;;;;;;10.00;99.41;103050.59;5072263;28;20028;-34
2022/11/11 10:42:27;;;;;;;7.10;6.18;;;;;;;10.12;99.60;103053.81;5072633;28;20032;-34
2022/11/11 10:44:59;;;;;;;9.37;6.27;;;;;;;10.13;98.83;103058.19;5072754;28;20024;-34
2022/11/11 10:47:42;;;;;;;7.40;6.30;;;;;;;10.16;98.42;103055.97;5072442;28;20025;-34
2022/11/11 10:50:19;;;;;;;7.63;6.00;;;;;;;10.21;98.56;103050.06;5072954;28;20068;-34
2022/11/11 10:52:57;;;;;;;7.93;5.75;;;;;;;10.24;97.61;103047.00;5072853;28;20079;-34
2022/11/11 10:55:29;;;;;;;7.63;5.70;;;;;;;10.31;97.52;103056.13;5072672;28;20040;-35
2022/11/11 10:58:03;;;;;;;9.63;5.90;;;;;;;10.35;97.10;103054.75;5071467;28;20082;-34
2022/11/11 11:00:32;;;;;;;7.43;5.80;;;;;;;10.40;97.04;103038.84;5072572;28;20470;-34
2022/11/11 11:03:23;;;;;;;8.13;6.28;;;;;;;10.50;96.36;103044.88;5072714;28;20166;-34
2022/11/11 11:05:53;;;;;;;7.22;6.03;;;;;;;10.63;96.15;103055.13;5072030;28;20024;-34
2022/11/11 11:08:23;;;;;;;6.47;5.45;;;;;;;10.67;95.33;103051.03;5072422;28;20021;-34
2022/11/11 11:10:53;;;;;;;5.97;5.38;;;;;;;10.75;95.42;103044.75;5072486;28;20032;-35
2022/11/11 11:13:41;;;;;;;6.65;5.15;;;;;;;10.88;96.07;103042.28;5072809;28;20404;-35
2022/11/11 11:16:17;;;;;;;6.28;5.15;;;;;;;10.94;94.46;103047.00;5072477;28;20384;-35
2022/11/11 11:18:43;;;;;;;9.23;6.00;;;;;;;11.00;94.08;103040.00;5072442;28;20191;-35
2022/11/11 11:21:09;;;;;;;6.70;5.15;;;;;;;11.01;94.08;103030.84;5072386;28;20460;-34
2022/11/11 11:23:41;;;;;;;6.25;4.90;;;;;;;11.08;93.75;103043.50;5087531;28;20381;-34
2022/11/11 11:26:09;;;;;;;6.03;4.60;;;;;;;11.08;93.42;103032.69;5072023;28;20032;-34
2022/11/11 11:28:55;;;;;;;8.23;5.03;;;;;;;11.19;92.87;103036.81;5072771;28;20027;-34
2022/11/11 11:31:38;;;;;;;7.35;4.88;;;;;;;11.24;93.60;103030.84;5072528;28;20457;-35
2022/11/11 11:34:04;;;;;;;6.85;4.60;;;;;;;11.28;93.24;103034.88;5072814;28;20032;-34
2022/11/11 11:36:29;;;;;;;5.28;4.05;;;;;;;11.22;92.66;103013.94;5075306;28;20087;-35
2022/11/11 11:38:54;;;;;;;5.75;4.20;;;;;;;11.33;92.06;103025.19;5076054;28;20112;-35
2022/11/11 11:41:38;;;;;;;6.57;3.90;;;;;;;11.34;92.45;103018.72;5075834;28;20465;-35
2022/11/11 11:44:30;;;;;;;6.47;4.07;;;;;;;11.49;92.52;103029.59;5075225;28;20020;-35
2022/11/11 11:47:29;;;;;;;6.82;4.43;;;;;;;11.55;91.70;103038.84;5075367;28;20107;-35
2022/11/11 11:50:07;;;;;;;5.25;3.80;;;;;;;11.57;90.58;103034.13;5075726;28;20033;-35
2022/11/11 11:52:45;;;;;;;5.18;3.92;;;;;;;11.58;90.63;103028.50;5075177;28;20060;-35
2022/11/11 11:55:14;;;;;;;4.18;3.13;;;;;;;11.57;90.41;103026.81;5076047;28;20048;-34
2022/11/11 11:57:39;;;;;;;4.18;3.17;;;;;;;11.58;89.48;103022.25;5075491;28;20396;-35
2022/11/11 12:00:12;;;;;;;3.80;2.60;;;;;;;11.60;89.08;103015.59;5075395;28;20032;-35
2022/11/11 12:02:59;;;;;;;5.75;2.90;;;;;;;11.62;88.99;103023.56;5075218;28;20111;-34
2022/11/11 12:05:59;;;;;;;4.38;2.80;;;;;;;11.66;89.85;103014.00;5075559;28;20024;-35
2022/11/11 12:08:39;;;;;;;6.40;2.80;;;;;;;11.65;88.80;103015.03;5075189;28;20028;-34
2022/11/11 12:11:33;;;;;;;6.03;2.75;;;;;;;11.73;90.24;103020.38;5075197;28;20137;-35
2022/11/11 12:14:27;;;;;;;4.47;2.28;;;;;;;11.76;89.51;103002.91;5073960;28;20523;-35
2022/11/11 12:17:24;;;;;;;4.60;2.47;;;;;;;11.88;89.94;103017.72;5074910;28;20047;-34
2022/11/11 12:19:52;;;;;;;3.38;2.20;;;;;;;11.87;88.70;102997.06;5075499;28;20439;-35
2022/11/11 12:22:26;;;;;;;3.88;2.17;;;;;;;11.90;88.12;103002.09;5075427;28;20036;-35
2022/11/11 12:25:07;;;;;;;3.90;1.95;;;;;;;12.00;88.08;103004.53;5074952;28;20044;-35
2022/11/11 12:27:38;;;;;;;3.83;2.40;;;;;;;12.06;86.88;102998.38;5075149;28;20365;-35
2022/11/11 12:30:09;;;;;;;3.47;2.30;;;;;;;12.03;86.39;102983.28;5074487;28;20358;-35
2022/11/11 12:32:37;;;;;;;3.20;1.98;;;;;;;12.14;86.66;102990.09;5074586;28;20361;-35
2022/11/11 12:35:11;;;;;;;3.03;1.80;;;;;;;12.18;87.39;102975.13;5075046;28;20051;-35
2022/11/11 12:37:52;;;;;;;3.85;2.13;;;;;;;12.27;86.81;102992.16;5074254;28;20090;-35
2022/11/11 12:41:05;;;;;;;4.45;2.00;;;;;;;12.27;85.56;102984.00;5074784;28;20035;-35
2022/11/11 12:43:44;;;;;;;1.92;1.40;;;;;;;12.27;85.55;102978.59;5060767;28;20061;-35